Time;durP1;ratioP1;P1;durP2;ratioP2;P2;SDS_P1;SDS_P2;PMS_P1;PMS_P2;Temp;Humidity;BMP_temperature;BMP_pressure;BME280_temperature;BME280_humidity;BME280_pressure;Samples;Min_cycle;Max_cycle;Signal;HPM_P1;HPM_P2
2023/04/21 00:00:00;;;;;;;13.93;5.50;;;12.90;99.90;;;;;;5048346;28;20219;-72
2023/04/21 00:02:26;;;;;;;12.93;5.80;;;12.80;99.90;;;;;;5041653;28;20287;-72
2023/04/21 00:04:52;;;;;;;13.00;6.30;;;12.80;99.90;;;;;;5038371;28;20213;-74
2023/04/21 00:07:19;;;;;;;18.37;5.90;;;12.80;99.90;;;;;;5036366;28;20219;-73
2023/04/21 00:09:45;;;;;;;17.23;5.87;;;12.70;99.90;;;;;;5034729;28;20188;-75
2023/04/21 00:12:11;;;;;;;17.53;6.80;;;12.70;99.90;;;;;;5048860;28;20678;-74
2023/04/21 00:14:38;;;;;;;15.57;6.50;;;12.60;99.90;;;;;;5031544;28;20262;-73
2023/04/21 00:17:04;;;;;;;16.33;6.57;;;12.60;99.90;;;;;;5043898;28;20681;-74
2023/04/21 00:19:30;;;;;;;11.87;6.60;;;12.60;99.90;;;;;;5044340;28;20270;-74
2023/04/21 00:21:58;;;;;;;12.27;6.20;;;12.60;99.90;;;;;;5056043;28;20215;-74
2023/04/21 00:24:25;;;;;;;14.07;6.97;;;12.50;99.90;;;;;;5037866;28;20579;-74
2023/04/21 00:26:50;;;;;;;13.37;6.53;;;12.50;99.90;;;;;;5041037;28;20211;-74
2023/04/21 00:29:16;;;;;;;14.07;6.33;;;12.40;99.90;;;;;;5041671;28;20287;-74
2023/04/21 00:31:42;;;;;;;14.77;6.50;;;12.40;99.90;;;;;;5047454;28;20215;-74
2023/04/21 00:34:08;;;;;;;15.90;6.53;;;12.30;99.90;;;;;;5051215;28;20248;-73
2023/04/21 00:36:33;;;;;;;13.03;6.87;;;12.30;99.90;;;;;;5043724;28;20173;-74
2023/04/21 00:38:59;;;;;;;16.83;7.33;;;12.30;99.90;;;;;;5049185;28;20259;-74
2023/04/21 00:41:27;;;;;;;16.83;7.10;;;12.30;99.90;;;;;;5041656;28;20200;-74
2023/04/21 00:44:01;;;;;;;16.03;6.87;;;12.10;99.90;;;;;;5042810;28;20277;-75
2023/04/21 00:46:27;;;;;;;14.37;7.43;;;12.10;99.90;;;;;;5039708;28;20279;-74
2023/04/21 00:48:53;;;;;;;11.17;6.63;;;12.10;99.90;;;;;;5038076;28;20264;-75
2023/04/21 00:51:19;;;;;;;16.80;6.80;;;12.10;99.90;;;;;;5048394;28;20169;-74
2023/04/21 00:53:45;;;;;;;17.13;6.90;;;12.10;99.90;;;;;;5052570;28;20224;-74
2023/04/21 00:56:11;;;;;;;14.47;6.87;;;12.00;99.90;;;;;;5043374;28;20211;-74
2023/04/21 00:58:41;;;;;;;13.03;7.30;;;12.00;99.90;;;;;;5042127;28;20215;-74
2023/04/21 01:01:07;;;;;;;13.13;7.67;;;12.00;99.90;;;;;;5055992;28;20180;-74
2023/04/21 01:03:33;;;;;;;11.77;7.10;;;12.00;99.90;;;;;;5046855;28;20206;-74
2023/04/21 01:05:58;;;;;;;13.50;6.40;;;12.00;99.90;;;;;;5041052;28;20231;-74
2023/04/21 01:08:25;;;;;;;16.30;7.73;;;12.00;99.90;;;;;;5047086;28;20203;-74
2023/04/21 01:10:51;;;;;;;13.00;7.13;;;12.00;99.90;;;;;;5040527;28;20232;-74
2023/04/21 01:13:21;;;;;;;14.67;7.27;;;12.00;99.90;;;;;;5041353;28;20250;-74
2023/04/21 01:15:47;;;;;;;13.07;7.83;;;12.00;99.90;;;;;;5055435;28;20183;-74
2023/04/21 01:18:13;;;;;;;13.67;7.63;;;11.90;99.90;;;;;;5031982;28;20211;-74
2023/04/21 01:20:39;;;;;;;14.80;8.00;;;11.90;99.90;;;;;;5037229;28;20576;-74
2023/04/21 01:23:05;;;;;;;10.57;7.60;;;11.90;99.90;;;;;;5038897;28;20208;-72
2023/04/21 01:25:31;;;;;;;11.47;7.67;;;11.90;99.90;;;;;;5047380;28;20203;-74
2023/04/21 01:27:57;;;;;;;11.30;7.17;;;11.90;99.90;;;;;;5052144;28;20191;-74
2023/04/21 01:30:23;;;;;;;15.87;7.67;;;11.80;99.90;;;;;;5055497;28;20665;-74
2023/04/21 01:32:49;;;;;;;19.13;8.10;;;11.80;99.90;;;;;;5043706;28;20208;-73
2023/04/21 01:35:14;;;;;;;13.73;8.50;;;11.80;99.90;;;;;;5032028;28;20224;-73
2023/04/21 01:37:40;;;;;;;15.80;8.03;;;11.80;99.90;;;;;;5048527;28;20383;-74
2023/04/21 01:40:08;;;;;;;15.30;7.93;;;11.80;99.90;;;;;;5043520;28;20259;-74
2023/04/21 01:42:42;;;;;;;15.97;8.90;;;11.80;99.90;;;;;;5045469;28;20267;-75
2023/04/21 01:45:09;;;;;;;16.13;8.47;;;11.80;99.90;;;;;;5046471;28;20216;-73
2023/04/21 01:47:34;;;;;;;13.23;8.17;;;11.80;99.90;;;;;;5050667;28;20227;-73
2023/04/21 01:50:00;;;;;;;16.07;8.77;;;11.70;99.90;;;;;;5041806;28;20270;-73
2023/04/21 01:52:26;;;;;;;13.50;8.17;;;11.80;99.90;;;;;;5044669;28;20226;-74
2023/04/21 01:54:51;;;;;;;17.43;8.90;;;11.80;99.90;;;;;;5035627;28;20865;-72
2023/04/21 01:57:17;;;;;;;14.23;7.63;;;11.70;99.90;;;;;;5043256;28;20600;-74
2023/04/21 01:59:43;;;;;;;13.20;8.40;;;11.70;99.90;;;;;;5036247;28;20244;-74
2023/04/21 02:02:09;;;;;;;15.57;8.83;;;11.70;99.90;;;;;;5042695;28;20208;-74
2023/04/21 02:04:35;;;;;;;15.10;8.50;;;11.70;99.90;;;;;;5032897;28;20209;-74
2023/04/21 02:07:00;;;;;;;16.40;8.60;;;11.70;99.90;;;;;;5043281;28;20647;-73
2023/04/21 02:09:26;;;;;;;17.60;9.10;;;11.70;99.90;;;;;;5050630;28;20176;-74
2023/04/21 02:11:53;;;;;;;14.23;9.07;;;11.70;99.90;;;;;;5042086;28;20208;-73
2023/04/21 02:14:19;;;;;;;16.33;8.83;;;11.60;99.90;;;;;;5047605;28;20203;-72
2023/04/21 02:16:45;;;;;;;14.97;8.77;;;11.60;99.90;;;;;;5041276;28;20211;-74
2023/04/21 02:19:10;;;;;;;12.37;8.43;;;11.60;99.90;;;;;;5039544;28;20187;-73
2023/04/21 02:21:36;;;;;;;15.73;8.67;;;11.60;99.90;;;;;;5042553;28;20197;-74
2023/04/21 02:24:02;;;;;;;17.23;9.50;;;11.60;99.90;;;;;;5040696;28;20215;-74
2023/04/21 02:26:27;;;;;;;13.53;9.07;;;11.60;99.90;;;;;;5030469;28;20204;-73
2023/04/21 02:28:53;;;;;;;14.93;9.13;;;11.50;99.90;;;;;;5036033;28;20305;-71
2023/04/21 02:31:19;;;;;;;16.17;9.27;;;11.50;99.90;;;;;;5035779;28;20224;-72
2023/04/21 02:33:44;;;;;;;17.10;9.03;;;11.50;99.90;;;;;;5036535;28;20227;-74
2023/04/21 02:36:10;;;;;;;19.73;10.03;;;11.50;99.90;;;;;;5038925;28;20809;-74
2023/04/21 02:38:36;;;;;;;17.77;9.73;;;11.50;99.90;;;;;;5044198;28;20208;-73
2023/04/21 02:41:01;;;;;;;17.07;9.90;;;11.50;99.90;;;;;;5038007;28;20706;-74
2023/04/21 02:43:27;;;;;;;11.67;8.70;;;11.40;99.90;;;;;;5040889;28;20239;-73
2023/04/21 02:45:53;;;;;;;15.93;10.03;;;11.40;99.90;;;;;;5040749;28;20225;-73
2023/04/21 02:48:21;;;;;;;15.27;9.83;;;11.40;99.90;;;;;;5034967;28;20540;-73
2023/04/21 02:50:48;;;;;;;20.67;11.20;;;11.30;99.90;;;;;;5046625;28;20717;-74
2023/04/21 02:53:15;;;;;;;21.40;11.77;;;11.30;99.90;;;;;;5051275;28;21419;-74
2023/04/21 02:55:41;;;;;;;20.13;13.30;;;11.30;99.90;;;;;;5045423;28;20219;-73
2023/04/21 02:58:06;;;;;;;30.33;15.60;;;11.30;99.90;;;;;;5043683;28;20211;-74
2023/04/21 03:00:32;;;;;;;24.50;17.37;;;11.30;99.90;;;;;;5053784;28;20537;-73
2023/04/21 03:02:58;;;;;;;27.87;19.77;;;11.30;99.90;;;;;;5054696;28;20239;-73
2023/04/21 03:05:23;;;;;;;34.70;21.97;;;11.20;99.90;;;;;;5042400;28;20218;-75
2023/04/21 03:07:49;;;;;;;37.83;22.87;;;11.20;99.90;;;;;;5051168;28;20271;-74
2023/04/21 03:10:15;;;;;;;38.03;23.07;;;11.20;99.90;;;;;;5051326;28;21431;-74
2023/04/21 03:12:41;;;;;;;37.37;23.50;;;11.20;99.90;;;;;;5049897;28;20630;-74
2023/04/21 03:15:06;;;;;;;34.13;21.30;;;11.20;99.90;;;;;;5048899;28;20707;-74
2023/04/21 03:17:32;;;;;;;29.87;21.37;;;11.20;99.90;;;;;;5044660;28;20215;-73
2023/04/21 03:19:58;;;;;;;28.17;19.13;;;11.10;99.90;;;;;;5039123;28;20212;-72
2023/04/21 03:22:23;;;;;;;26.53;17.37;;;11.20;99.90;;;;;;5041318;28;20204;-74
2023/04/21 03:24:49;;;;;;;23.87;15.63;;;11.10;99.90;;;;;;5046409;28;20200;-74
2023/04/21 03:27:14;;;;;;;23.80;15.17;;;11.10;99.90;;;;;;5053016;28;20218;-73
2023/04/21 03:29:40;;;;;;;23.97;13.77;;;11.10;99.90;;;;;;5048411;28;20223;-73
2023/04/21 03:32:06;;;;;;;21.30;12.20;;;11.00;99.90;;;;;;5041067;28;20216;-74
2023/04/21 03:34:31;;;;;;;20.00;11.77;;;11.00;99.90;;;;;;5047476;28;20212;-73
2023/04/21 03:36:57;;;;;;;18.40;11.17;;;11.00;99.90;;;;;;5040071;28;20184;-73
2023/04/21 03:39:23;;;;;;;20.70;10.87;;;11.00;99.90;;;;;;5033605;28;20179;-73
2023/04/21 03:41:48;;;;;;;16.03;10.53;;;11.00;99.90;;;;;;5044753;28;20650;-74
2023/04/21 03:44:14;;;;;;;15.23;9.80;;;10.90;99.90;;;;;;5041504;28;20216;-73
2023/04/21 03:46:40;;;;;;;15.57;9.80;;;10.90;99.90;;;;;;5049299;28;20204;-75
2023/04/21 03:49:05;;;;;;;17.80;9.57;;;10.90;99.90;;;;;;5048667;28;20585;-73
2023/04/21 03:51:31;;;;;;;16.07;9.97;;;10.80;99.90;;;;;;5045871;28;20168;-73
2023/04/21 03:53:57;;;;;;;13.80;9.93;;;10.80;99.90;;;;;;5047897;28;20252;-75
2023/04/21 03:56:23;;;;;;;14.33;9.67;;;10.80;99.90;;;;;;5040466;28;20690;-74
2023/04/21 03:58:48;;;;;;;15.27;10.07;;;10.80;99.90;;;;;;5038531;28;20443;-74
2023/04/21 04:01:14;;;;;;;18.40;9.53;;;10.70;99.90;;;;;;5047059;28;20445;-73
2023/04/21 04:03:40;;;;;;;15.53;9.87;;;10.80;99.90;;;;;;5050714;28;20191;-74
2023/04/21 04:06:06;;;;;;;14.43;9.93;;;10.80;99.90;;;;;;5048395;28;20249;-74
2023/04/21 04:08:31;;;;;;;19.50;10.13;;;10.80;99.90;;;;;;5045824;28;20284;-73
2023/04/21 04:10:57;;;;;;;17.90;10.97;;;10.80;99.90;;;;;;5043333;28;20740;-74
2023/04/21 04:13:25;;;;;;;17.87;10.97;;;10.80;99.90;;;;;;5051345;28;20302;-73
2023/04/21 04:15:51;;;;;;;13.67;9.30;;;10.80;99.90;;;;;;5042551;28;20546;-75
2023/04/21 04:18:16;;;;;;;14.33;9.40;;;10.80;99.90;;;;;;5039051;28;20246;-72
2023/04/21 04:20:42;;;;;;;19.50;9.73;;;10.80;99.90;;;;;;5044369;28;20211;-73
2023/04/21 04:23:08;;;;;;;17.40;10.60;;;10.80;99.90;;;;;;5041575;28;20214;-73
2023/04/21 04:25:33;;;;;;;15.23;10.10;;;10.80;99.90;;;;;;5034142;28;20204;-73
2023/04/21 04:27:59;;;;;;;19.07;9.83;;;10.80;99.90;;;;;;5040912;28;20678;-73
2023/04/21 04:30:27;;;;;;;16.87;10.67;;;10.90;99.90;;;;;;5047188;28;20177;-72
2023/04/21 04:32:53;;;;;;;13.63;9.07;;;10.90;99.90;;;;;;5036198;28;20220;-73
2023/04/21 04:35:18;;;;;;;15.17;9.93;;;11.20;99.90;;;;;;5040286;28;20269;-72
2023/04/21 04:37:44;;;;;;;18.47;9.47;;;11.50;99.90;;;;;;5032892;28;20424;-73
2023/04/21 04:40:13;;;;;;;15.40;9.63;;;11.90;99.90;;;;;;5042027;28;20176;-73
2023/04/21 04:42:39;;;;;;;15.33;9.67;;;12.20;99.90;;;;;;5044048;28;20176;-73
2023/04/21 04:45:07;;;;;;;52.60;30.37;;;12.40;99.90;;;;;;5046039;28;20760;-73
2023/04/21 04:47:36;;;;;;;15.35;9.73;;;12.50;99.90;;;;;;5041228;28;20804;-73
2023/04/21 04:50:03;;;;;;;16.20;10.32;;;12.60;99.90;;;;;;5053604;28;20219;-71
2023/04/21 04:52:29;;;;;;;16.52;10.57;;;12.80;99.90;;;;;;5047718;28;20232;-74
2023/04/21 04:54:54;;;;;;;13.88;9.38;;;13.30;99.90;;;;;;5044857;28;20247;-75
2023/04/21 04:57:20;;;;;;;14.82;9.85;;;13.60;99.90;;;;;;5043834;28;20231;-74
2023/04/21 04:59:46;;;;;;;16.80;9.73;;;13.80;99.90;;;;;;5037437;28;20698;-76
2023/04/21 05:02:11;;;;;;;15.90;9.30;;;14.10;99.90;;;;;;5043691;28;20203;-75
2023/04/21 05:04:37;;;;;;;12.60;8.93;;;14.50;99.90;;;;;;5035015;28;20218;-74
2023/04/21 05:07:05;;;;;;;14.23;10.00;;;14.50;99.90;;;;;;5050055;28;20177;-74
2023/04/21 05:09:30;;;;;;;13.25;9.43;;;14.60;99.90;;;;;;5034646;28;20600;-75
2023/04/21 05:11:56;;;;;;;13.80;9.02;;;14.20;99.90;;;;;;5034896;28;20211;-75
2023/04/21 05:14:21;;;;;;;16.23;9.10;;;14.70;99.90;;;;;;5033642;28;20235;-74
2023/04/21 05:16:47;;;;;;;15.50;9.52;;;15.00;99.90;;;;;;5051977;28;20204;-75
2023/04/21 05:19:13;;;;;;;13.60;9.65;;;14.70;99.90;;;;;;5041269;28;20212;-76
2023/04/21 05:21:38;;;;;;;15.93;9.27;;;15.10;99.90;;;;;;5042473;28;20172;-76
2023/04/21 05:24:04;;;;;;;19.35;12.32;;;15.20;99.90;;;;;;5039110;28;20212;-73
2023/04/21 05:26:30;;;;;;;15.93;10.50;;;15.20;99.90;;;;;;5041018;28;20214;-76
2023/04/21 05:28:57;;;;;;;15.43;9.82;;;15.50;99.90;;;;;;5037981;28;20212;-76
2023/04/21 05:31:23;;;;;;;13.88;9.35;;;15.80;99.90;;;;;;5037950;28;20670;-74
2023/04/21 05:33:49;;;;;;;13.88;9.10;;;15.80;99.90;;;;;;5037170;28;20636;-73
2023/04/21 05:36:15;;;;;;;11.18;9.10;;;16.10;99.90;;;;;;5037557;28;20768;-76
2023/04/21 05:38:40;;;;;;;12.35;8.85;;;16.10;99.90;;;;;;5035361;28;20208;-76
2023/04/21 05:41:06;;;;;;;13.55;9.63;;;16.30;99.90;;;;;;5034639;28;20219;-76
2023/04/21 05:43:32;;;;;;;12.15;9.38;;;16.70;99.90;;;;;;5034809;28;20203;-76
2023/04/21 05:45:59;;;;;;;13.52;9.05;;;16.50;99.90;;;;;;5033681;28;20544;-77
2023/04/21 05:48:24;;;;;;;16.50;10.70;;;16.80;99.90;;;;;;5036795;28;20197;-76
2023/04/21 05:50:50;;;;;;;14.35;9.93;;;17.00;99.90;;;;;;5032335;28;20719;-76
2023/04/21 05:53:16;;;;;;;12.55;9.63;;;17.40;99.90;;;;;;5031649;28;20220;-75
2023/04/21 05:55:42;;;;;;;14.35;9.57;;;17.00;99.90;;;;;;5035337;28;20231;-75
2023/04/21 05:58:08;;;;;;;15.07;9.77;;;17.30;99.90;;;;;;5037075;28;20183;-75
2023/04/21 06:00:34;;;;;;;13.02;9.63;;;17.30;99.90;;;;;;5042197;28;20221;-76
2023/04/21 06:02:59;;;;;;;13.93;9.05;;;17.90;99.90;;;;;;5046202;28;20211;-75
2023/04/21 06:05:25;;;;;;;17.77;10.07;;;18.00;99.90;;;;;;5039852;28;20583;-75
2023/04/21 06:07:51;;;;;;;12.88;9.20;;;18.20;99.90;;;;;;5036619;28;20201;-76
2023/04/21 06:10:17;;;;;;;13.95;9.43;;;18.40;99.90;;;;;;5044705;28;20211;-75
2023/04/21 06:12:43;;;;;;;16.58;10.93;;;17.90;99.90;;;;;;5043511;28;20713;-76
2023/04/21 06:15:09;;;;;;;16.75;9.38;;;17.80;99.90;;;;;;5036392;28;20232;-75
2023/04/21 06:17:34;;;;;;;14.55;9.30;;;18.00;99.90;;;;;;5035761;28;20242;-76
2023/04/21 06:20:00;;;;;;;13.48;9.13;;;18.00;99.90;;;;;;5033975;28;20639;-75
2023/04/21 06:22:26;;;;;;;14.13;9.63;;;18.00;99.90;;;;;;5034573;28;20204;-76
2023/04/21 06:24:52;;;;;;;15.30;10.00;;;17.90;99.90;;;;;;5033319;28;20899;-76
2023/04/21 06:27:18;;;;;;;12.98;9.23;;;18.30;99.90;;;;;;5032767;28;20212;-75
2023/04/21 06:29:43;;;;;;;12.63;10.02;;;18.20;99.90;;;;;;5031693;28;20208;-75
2023/04/21 06:32:10;;;;;;;11.43;8.60;;;18.40;99.90;;;;;;5030835;28;20212;-75
2023/04/21 06:34:37;;;;;;;11.75;8.98;;;18.80;99.90;;;;;;5033506;28;20231;-75
2023/04/21 06:37:02;;;;;;;12.52;9.70;;;19.10;99.90;;;;;;5038428;28;20186;-76
2023/04/21 06:39:28;;;;;;;13.63;10.07;;;19.10;99.90;;;;;;5040957;28;20544;-76
2023/04/21 06:41:54;;;;;;;14.52;9.98;;;18.40;99.90;;;;;;5037525;28;20281;-74
2023/04/21 06:44:20;;;;;;;14.00;9.75;;;18.30;99.90;;;;;;5038840;28;20294;-74
2023/04/21 06:46:46;;;;;;;15.32;9.75;;;18.80;99.90;;;;;;5038502;28;20303;-76
2023/04/21 06:49:11;;;;;;;16.65;9.25;;;19.00;99.90;;;;;;5035868;28;20547;-76
2023/04/21 06:51:37;;;;;;;12.07;8.73;;;18.70;99.90;;;;;;5039026;28;20172;-73
2023/04/21 06:54:04;;;;;;;13.32;9.27;;;19.00;99.90;;;;;;5035944;28;20303;-75
2023/04/21 06:56:30;;;;;;;12.05;8.82;;;18.80;99.90;;;;;;5035473;28;20203;-75
2023/04/21 06:58:56;;;;;;;14.65;10.15;;;18.90;99.90;;;;;;5038162;28;20235;-76
2023/04/21 07:01:23;;;;;;;14.70;8.73;;;18.80;99.90;;;;;;5035315;28;20277;-77
2023/04/21 07:03:50;;;;;;;11.68;9.13;;;19.20;99.90;;;;;;5041797;28;20204;-75
2023/04/21 07:06:15;;;;;;;13.65;9.57;;;19.30;99.90;;;;;;5034844;28;20208;-75
2023/04/21 07:08:41;;;;;;;13.43;9.90;;;19.40;99.90;;;;;;5031011;28;20276;-75
2023/04/21 07:11:07;;;;;;;14.02;9.80;;;18.90;99.90;;;;;;5030518;28;20212;-75
2023/04/21 07:13:32;;;;;;;14.57;9.23;;;19.30;99.90;;;;;;5044250;28;20215;-78
2023/04/21 07:15:58;;;;;;;15.85;9.48;;;19.20;99.90;;;;;;5034649;28;20188;-75
2023/04/21 07:18:24;;;;;;;11.65;8.88;;;19.80;99.90;;;;;;5039652;28;20212;-74
2023/04/21 07:20:50;;;;;;;14.23;9.05;;;20.10;99.90;;;;;;5037852;28;20217;-76
2023/04/21 07:23:15;;;;;;;14.27;9.32;;;20.60;99.90;;;;;;5036492;28;20208;-75
2023/04/21 07:25:41;;;;;;;19.35;15.75;;;21.20;99.90;;;;;;5041244;28;20269;-75
2023/04/21 07:28:07;;;;;;;34.67;20.73;;;21.90;99.90;;;;;;5037158;28;20210;-75
2023/04/21 07:30:33;;;;;;;26.60;18.52;;;20.80;99.90;;;;;;5041887;28;20176;-73
2023/04/21 07:32:59;;;;;;;18.25;13.13;;;20.30;99.90;;;;;;5042384;28;20247;-75
2023/04/21 07:35:25;;;;;;;16.60;11.65;;;21.50;99.90;;;;;;5038548;28;20591;-74
2023/04/21 07:37:51;;;;;;;13.73;10.40;;;21.60;99.90;;;;;;5036443;28;20267;-76
2023/04/21 07:40:16;;;;;;;15.52;11.60;;;21.50;99.90;;;;;;5040970;28;20204;-76
2023/04/21 07:42:42;;;;;;;14.90;10.68;;;22.90;99.90;;;;;;5040998;28;20674;-76
2023/04/21 07:45:08;;;;;;;12.43;9.30;;;22.10;99.90;;;;;;5038850;28;20219;-76
2023/04/21 07:47:34;;;;;;;12.93;10.25;;;22.40;99.90;;;;;;5034578;28;20215;-76
2023/04/21 07:50:00;;;;;;;12.73;9.25;;;21.80;99.90;;;;;;5033882;28;20208;-76
2023/04/21 07:52:25;;;;;;;15.00;9.50;;;21.80;99.90;;;;;;5042877;28;20224;-75
2023/04/21 07:54:51;;;;;;;13.63;9.77;;;21.90;99.90;;;;;;5042738;28;20304;-76
2023/04/21 07:57:17;;;;;;;18.13;13.25;;;22.30;99.90;;;;;;5038324;28;20208;-75
2023/04/21 07:59:42;;;;;;;15.85;9.55;;;22.60;99.90;;;;;;5042551;28;20219;-76
2023/04/21 08:02:08;;;;;;;15.95;10.52;;;23.20;99.90;;;;;;5043076;28;20203;-75
2023/04/21 08:04:35;;;;;;;14.25;10.68;;;22.50;99.90;;;;;;5041243;28;20230;-76
2023/04/21 08:07:00;;;;;;;16.95;10.80;;;22.20;99.90;;;;;;5053403;28;20266;-76
2023/04/21 08:09:26;;;;;;;20.20;14.25;;;22.50;99.90;;;;;;5039560;28;20208;-76
2023/04/21 08:11:53;;;;;;;14.63;9.75;;;22.70;99.90;;;;;;5036924;28;20286;-76
2023/04/21 08:14:20;;;;;;;14.05;9.63;;;21.30;99.90;;;;;;5037314;28;20208;-73
2023/04/21 08:16:46;;;;;;;14.27;11.32;;;21.40;99.90;;;;;;5036236;28;20211;-77
2023/04/21 08:19:12;;;;;;;14.65;9.85;;;20.10;99.90;;;;;;5035300;28;20216;-74
2023/04/21 08:21:39;;;;;;;15.57;9.90;;;20.40;99.90;;;;;;5036106;28;20566;-76
2023/04/21 08:24:05;;;;;;;12.50;8.20;;;19.90;99.90;;;;;;5034228;28;20258;-77
2023/04/21 08:26:32;;;;;;;14.23;8.60;;;19.60;99.90;;;;;;5033856;28;20266;-77
2023/04/21 08:28:58;;;;;;;13.40;8.85;;;19.70;99.90;;;;;;5039790;28;20581;-77
2023/04/21 08:31:24;;;;;;;11.80;8.68;;;19.70;99.90;;;;;;5041136;28;20208;-75
2023/04/21 08:33:50;;;;;;;13.85;8.93;;;19.90;99.90;;;;;;5046972;28;20260;-75
2023/04/21 08:36:16;;;;;;;14.43;9.25;;;19.60;99.90;;;;;;5058218;28;20219;-74
2023/04/21 08:38:43;;;;;;;14.55;8.88;;;19.70;99.90;;;;;;5046300;28;20417;-76
2023/04/21 08:41:09;;;;;;;15.45;8.75;;;19.60;99.90;;;;;;5038622;28;20209;-76
2023/04/21 08:43:35;;;;;;;10.82;8.57;;;19.50;99.90;;;;;;5042695;28;20222;-76
2023/04/21 08:46:06;;;;;;;14.65;9.13;;;19.70;99.90;;;;;;5037758;28;20177;-76
2023/04/21 08:48:35;;;;;;;13.52;9.15;;;19.90;99.90;;;;;;5039822;28;20599;-75
2023/04/21 08:51:01;;;;;;;17.23;8.82;;;20.10;99.90;;;;;;5039230;28;20238;-75
2023/04/21 08:53:27;;;;;;;14.50;9.48;;;20.20;99.90;;;;;;5048102;28;20218;-74
2023/04/21 08:55:55;;;;;;;12.88;8.20;;;19.80;99.90;;;;;;5038346;28;20291;-76
2023/04/21 08:58:21;;;;;;;12.38;8.50;;;19.60;99.90;;;;;;5037647;28;20656;-74
2023/04/21 09:00:48;;;;;;;13.00;8.52;;;19.50;99.90;;;;;;5048050;28;20181;-74
2023/04/21 09:03:22;;;;;;;14.30;9.10;;;19.20;99.90;;;;;;5037803;28;20208;-74
2023/04/21 09:05:57;;;;;;;14.35;9.25;;;19.00;99.90;;;;;;5043996;28;20590;-75
2023/04/21 09:08:27;;;;;;;13.70;9.10;;;19.30;99.90;;;;;;5044918;28;20218;-75
2023/04/21 09:10:53;;;;;;;12.30;8.25;;;19.20;99.90;;;;;;5047413;28;20577;-76
2023/04/21 09:13:19;;;;;;;11.15;8.20;;;19.10;99.90;;;;;;5045202;28;20773;-75
2023/04/21 09:15:47;;;;;;;10.82;6.78;;;19.00;99.90;;;;;;5052200;28;20561;-75
2023/04/21 09:18:24;;;;;;;15.05;8.50;;;18.90;99.90;;;;;;5054115;28;20218;-75
2023/04/21 09:20:51;;;;;;;11.02;8.20;;;19.10;99.90;;;;;;5048333;28;20286;-74
2023/04/21 09:23:19;;;;;;;12.63;8.07;;;19.20;99.90;;;;;;5042857;28;20212;-73
2023/04/21 09:25:45;;;;;;;13.98;8.27;;;19.10;99.90;;;;;;5042340;28;20229;-75
2023/04/21 09:28:12;;;;;;;13.13;8.48;;;19.20;99.90;;;;;;5041992;28;20650;-74
2023/04/21 09:30:41;;;;;;;11.40;7.25;;;19.30;99.90;;;;;;5040736;28;20176;-75
2023/04/21 09:33:07;;;;;;;13.63;7.93;;;19.40;99.90;;;;;;5035037;28;20277;-75
2023/04/21 09:35:35;;;;;;;12.82;8.50;;;19.70;99.90;;;;;;5035437;28;20208;-75
2023/04/21 09:38:03;;;;;;;12.25;7.97;;;19.80;99.90;;;;;;5033629;28;20647;-75
2023/04/21 09:40:29;;;;;;;11.90;7.88;;;19.50;99.90;;;;;;5038894;28;20211;-75
2023/04/21 09:42:55;;;;;;;10.15;8.75;;;19.70;99.90;;;;;;5032584;28;20264;-75
2023/04/21 09:45:25;;;;;;;12.25;8.38;;;19.60;99.90;;;;;;5032677;28;20291;-73
2023/04/21 09:47:55;;;;;;;10.43;7.05;;;19.50;99.90;;;;;;5035520;28;20211;-75
2023/04/21 09:50:21;;;;;;;8.15;6.90;;;19.60;99.90;;;;;;5031896;28;21017;-73
2023/04/21 09:52:50;;;;;;;9.95;7.80;;;19.10;99.90;;;;;;5037614;28;20251;-75
2023/04/21 09:55:18;;;;;;;9.80;6.60;;;19.30;99.90;;;;;;5038001;28;20240;-75
2023/04/21 09:57:49;;;;;;;10.35;6.95;;;19.40;99.90;;;;;;5043582;28;20168;-75
2023/04/21 10:00:17;;;;;;;11.18;7.90;;;19.60;99.90;;;;;;5037391;28;20263;-75
2023/04/21 10:02:48;;;;;;;12.20;7.60;;;19.70;99.90;;;;;;5045690;28;20215;-74
2023/04/21 10:05:15;;;;;;;11.85;8.60;;;19.80;99.90;;;;;;5038631;28;20212;-74
2023/04/21 10:07:40;;;;;;;10.63;7.57;;;19.50;99.90;;;;;;5037665;28;20207;-75
2023/04/21 10:10:12;;;;;;;11.13;7.63;;;19.50;99.90;;;;;;5035016;28;20180;-74
2023/04/21 10:12:37;;;;;;;9.98;6.40;;;19.70;99.90;;;;;;5036501;28;20196;-74
2023/04/21 10:15:31;;;;;;;13.02;7.13;;;19.60;99.90;;;;;;5034299;28;20283;-75
2023/04/21 10:18:14;;;;;;;8.90;7.15;;;19.50;99.90;;;;;;5038539;28;20212;-75
2023/04/21 10:20:55;;;;;;;8.68;6.80;;;19.60;99.90;;;;;;5037540;28;20205;-75
2023/04/21 10:23:31;;;;;;;10.32;7.68;;;19.80;99.90;;;;;;5032454;28;20212;-74
2023/04/21 10:26:11;;;;;;;9.95;7.00;;;20.00;99.90;;;;;;5037712;28;20574;-74
2023/04/21 10:28:53;;;;;;;10.10;6.85;;;20.00;99.90;;;;;;5037001;28;20211;-75
2023/04/21 10:31:22;;;;;;;8.90;6.97;;;19.90;99.90;;;;;;5037655;28;20223;-73
2023/04/21 10:34:09;;;;;;;10.73;6.25;;;19.70;99.90;;;;;;5045431;28;20609;-73
2023/04/21 10:37:04;;;;;;;7.35;6.07;;;19.80;99.90;;;;;;5040566;28;20640;-74
2023/04/21 10:39:43;;;;;;;10.48;6.57;;;20.00;99.90;;;;;;5038237;28;20204;-74
2023/04/21 10:42:12;;;;;;;11.57;6.65;;;19.80;99.90;;;;;;5039872;28;20633;-74
2023/04/21 10:44:49;;;;;;;10.55;7.60;;;19.60;99.90;;;;;;5038516;28;20204;-73
2023/04/21 10:47:35;;;;;;;11.85;6.57;;;19.60;99.90;;;;;;5036436;28;20616;-75
2023/04/21 10:50:10;;;;;;;10.05;6.72;;;19.40;99.90;;;;;;5043682;28;20212;-75
2023/04/21 10:52:35;;;;;;;10.02;6.57;;;19.50;99.90;;;;;;5035714;28;20230;-75
2023/04/21 10:55:01;;;;;;;9.00;6.60;;;19.60;99.90;;;;;;5035982;28;20230;-73
2023/04/21 10:57:31;;;;;;;13.45;6.93;;;19.50;99.90;;;;;;5036214;28;20639;-75
2023/04/21 10:59:57;;;;;;;10.55;6.60;;;19.60;99.90;;;;;;5042433;28;20562;-73
2023/04/21 11:02:23;;;;;;;8.48;6.35;;;19.60;99.90;;;;;;5043971;28;20604;-74
2023/04/21 11:04:53;;;;;;;7.30;6.35;;;19.90;99.90;;;;;;5045608;28;20298;-74
2023/04/21 11:07:27;;;;;;;8.95;6.07;;;19.80;99.90;;;;;;5039639;28;20211;-74
2023/04/21 11:10:05;;;;;;;12.80;6.20;;;19.60;99.90;;;;;;5045128;28;20727;-77
2023/04/21 11:12:37;;;;;;;10.25;6.65;;;19.60;99.90;;;;;;5042704;28;20277;-73
2023/04/21 11:15:07;;;;;;;9.70;6.68;;;19.50;99.90;;;;;;5049264;28;20211;-74
2023/04/21 11:17:34;;;;;;;8.38;6.75;;;19.60;99.90;;;;;;5045478;28;20214;-75
2023/04/21 11:20:01;;;;;;;9.95;7.05;;;19.70;99.90;;;;;;5044074;28;20295;-75
2023/04/21 11:22:27;;;;;;;9.93;6.07;;;19.70;99.90;;;;;;5044782;28;20318;-75
2023/04/21 11:24:54;;;;;;;7.90;6.53;;;19.60;99.90;;;;;;5043392;28;20235;-75
2023/04/21 11:27:21;;;;;;;8.18;5.75;;;19.80;99.90;;;;;;5039681;28;20262;-74
2023/04/21 11:29:48;;;;;;;10.35;6.22;;;19.70;99.90;;;;;;5044804;28;20204;-75
2023/04/21 11:32:14;;;;;;;12.57;6.78;;;19.60;99.90;;;;;;5038149;28;20272;-76
2023/04/21 11:34:40;;;;;;;11.48;6.38;;;19.50;99.90;;;;;;5041678;28;20203;-73
2023/04/21 11:37:13;;;;;;;11.05;6.15;;;19.70;99.90;;;;;;5041815;28;20183;-75
2023/04/21 11:39:42;;;;;;;12.98;6.95;;;19.70;99.90;;;;;;5038691;28;20699;-76
2023/04/21 11:42:09;;;;;;;12.38;7.82;;;19.50;99.90;;;;;;5037369;28;20212;-75
2023/04/21 11:44:42;;;;;;;9.95;6.97;;;19.50;99.90;;;;;;5038656;28;20220;-75
2023/04/21 11:47:15;;;;;;;9.70;6.60;;;19.60;99.90;;;;;;5037520;28;20254;-75
2023/04/21 11:49:45;;;;;;;9.88;6.40;;;19.80;99.90;;;;;;5047169;28;20196;-76
2023/04/21 11:52:28;;;;;;;10.82;7.05;;;19.70;99.90;;;;;;5036161;28;20663;-74
2023/04/21 11:55:04;;;;;;;9.13;6.65;;;19.60;99.90;;;;;;5050117;28;20219;-75
2023/04/21 11:57:31;;;;;;;8.93;6.43;;;19.70;99.90;;;;;;5042934;28;20187;-75
2023/04/21 12:00:03;;;;;;;8.75;6.72;;;19.90;99.90;;;;;;5044333;28;20616;-74
2023/04/21 12:02:30;;;;;;;7.63;6.03;;;20.00;99.90;;;;;;5047617;28;20812;-74
2023/04/21 12:05:01;;;;;;;11.80;6.38;;;20.20;99.90;;;;;;5042871;28;20215;-74
2023/04/21 12:07:29;;;;;;;9.65;6.03;;;20.20;99.90;;;;;;5042014;28;20581;-75
2023/04/21 12:09:54;;;;;;;8.68;6.30;;;20.40;99.80;;;;;;5042680;28;20195;-74
2023/04/21 12:12:22;;;;;;;9.32;7.05;;;20.30;99.10;;;;;;5037221;28;20181;-73
2023/04/21 12:14:50;;;;;;;10.25;7.03;;;20.00;99.20;;;;;;5037791;28;20216;-74
2023/04/21 12:17:16;;;;;;;8.75;6.32;;;20.10;99.80;;;;;;5035555;28;20250;-75
2023/04/21 12:19:42;;;;;;;9.48;6.28;;;20.20;98.90;;;;;;5035298;28;20196;-76
2023/04/21 12:22:09;;;;;;;10.07;6.13;;;20.10;99.40;;;;;;5034955;28;20177;-76
2023/04/21 12:24:36;;;;;;;8.85;6.53;;;20.00;99.90;;;;;;5035580;28;20227;-74
2023/04/21 12:27:02;;;;;;;8.05;7.03;;;19.90;99.90;;;;;;5037950;28;20219;-76
2023/04/21 12:29:28;;;;;;;8.55;6.32;;;19.80;99.90;;;;;;5033030;28;20208;-74
2023/04/21 12:31:54;;;;;;;11.70;6.35;;;19.90;99.90;;;;;;5032854;28;20209;-75
2023/04/21 12:34:19;;;;;;;8.90;6.40;;;19.80;99.90;;;;;;5036413;28;20730;-73